sensor_id;sensor_type;location;lat;lon;timestamp;temperature;humidity
14397;DHT22;50653;47.810;13.022;2023-03-13T00:02:12;5.90;99.90
14397;DHT22;50653;47.810;13.022;2023-03-13T00:04:38;5.90;99.90
14397;DHT22;50653;47.810;13.022;2023-03-13T00:07:04;5.90;99.90
14397;DHT22;50653;47.810;13.022;2023-03-13T00:09:29;5.80;99.90
14397;DHT22;50653;47.810;13.022;2023-03-13T00:11:55;5.80;99.90
14397;DHT22;50653;47.810;13.022;2023-03-13T00:14:21;5.70;99.90
14397;DHT22;50653;47.810;13.022;2023-03-13T00:16:46;5.70;99.90
14397;DHT22;50653;47.810;13.022;2023-03-13T00:19:12;5.80;99.90
14397;DHT22;50653;47.810;13.022;2023-03-13T00:21:39;5.80;99.90
14397;DHT22;50653;47.810;13.022;2023-03-13T00:24:06;5.90;99.90
14397;DHT22;50653;47.810;13.022;2023-03-13T00:26:32;5.80;99.90
14397;DHT22;50653;47.810;13.022;2023-03-13T00:28:58;5.80;99.90
14397;DHT22;50653;47.810;13.022;2023-03-13T00:31:28;5.70;99.90
14397;DHT22;50653;47.810;13.022;2023-03-13T00:33:58;5.70;99.90
14397;DHT22;50653;47.810;13.022;2023-03-13T00:36:26;5.70;99.90
14397;DHT22;50653;47.810;13.022;2023-03-13T00:38:53;5.70;99.90
14397;DHT22;50653;47.810;13.022;2023-03-13T00:41:28;5.60;99.90
14397;DHT22;50653;47.810;13.022;2023-03-13T00:43:54;5.60;99.90
14397;DHT22;50653;47.810;13.022;2023-03-13T00:46:22;5.60;99.90
14397;DHT22;50653;47.810;13.022;2023-03-13T00:48:48;5.60;99.90
14397;DHT22;50653;47.810;13.022;2023-03-13T00:51:15;5.60;99.90
14397;DHT22;50653;47.810;13.022;2023-03-13T00:53:42;5.50;99.90
14397;DHT22;50653;47.810;13.022;2023-03-13T00:56:11;5.50;99.90
14397;DHT22;50653;47.810;13.022;2023-03-13T00:58:39;5.50;99.90
14397;DHT22;50653;47.810;13.022;2023-03-13T01:01:07;5.60;99.90
14397;DHT22;50653;47.810;13.022;2023-03-13T01:03:34;5.50;99.90
14397;DHT22;50653;47.810;13.022;2023-03-13T01:06:02;5.50;99.90
14397;DHT22;50653;47.810;13.022;2023-03-13T01:08:29;5.50;99.90
14397;DHT22;50653;47.810;13.022;2023-03-13T01:11:00;5.50;99.90
14397;DHT22;50653;47.810;13.022;2023-03-13T01:13:27;5.50;99.90
14397;DHT22;50653;47.810;13.022;2023-03-13T01:15:53;5.50;99.90
14397;DHT22;50653;47.810;13.022;2023-03-13T01:18:18;5.50;99.90
14397;DHT22;50653;47.810;13.022;2023-03-13T01:20:44;5.40;99.90
14397;DHT22;50653;47.810;13.022;2023-03-13T01:23:09;5.50;99.90
14397;DHT22;50653;47.810;13.022;2023-03-13T01:25:36;5.40;99.90
14397;DHT22;50653;47.810;13.022;2023-03-13T01:28:03;5.40;99.90
14397;DHT22;50653;47.810;13.022;2023-03-13T01:30:29;5.40;99.90
14397;DHT22;50653;47.810;13.022;2023-03-13T01:32:55;5.40;99.90
14397;DHT22;50653;47.810;13.022;2023-03-13T01:35:20;5.40;99.90
14397;DHT22;50653;47.810;13.022;2023-03-13T01:37:46;5.40;99.90
14397;DHT22;50653;47.810;13.022;2023-03-13T01:40:12;5.50;99.90
14397;DHT22;50653;47.810;13.022;2023-03-13T01:42:57;5.50;99.90
14397;DHT22;50653;47.810;13.022;2023-03-13T01:51:26;5.40;99.90
14397;DHT22;50653;47.810;13.022;2023-03-13T01:54:11;5.40;99.90
14397;DHT22;50653;47.810;13.022;2023-03-13T01:59:16;5.30;99.90
14397;DHT22;50653;47.810;13.022;2023-03-13T02:01:45;5.30;99.90
14397;DHT22;50653;47.810;13.022;2023-03-13T02:04:13;5.40;99.90
14397;DHT22;50653;47.810;13.022;2023-03-13T02:06:41;5.40;99.90
14397;DHT22;50653;47.810;13.022;2023-03-13T02:09:12;5.40;99.90
14397;DHT22;50653;47.810;13.022;2023-03-13T02:11:53;5.40;99.90
14397;DHT22;50653;47.810;13.022;2023-03-13T02:14:22;5.50;99.90
14397;DHT22;50653;47.810;13.022;2023-03-13T02:16:53;5.50;99.90
14397;DHT22;50653;47.810;13.022;2023-03-13T02:19:29;5.50;99.90
14397;DHT22;50653;47.810;13.022;2023-03-13T02:24:53;5.40;99.90
14397;DHT22;50653;47.810;13.022;2023-03-13T02:27:21;5.40;99.90
14397;DHT22;50653;47.810;13.022;2023-03-13T02:29:48;5.50;99.90
14397;DHT22;50653;47.810;13.022;2023-03-13T02:32:15;5.50;99.90
14397;DHT22;50653;47.810;13.022;2023-03-13T02:34:42;5.40;99.90
14397;DHT22;50653;47.810;13.022;2023-03-13T02:37:09;5.40;99.90
14397;DHT22;50653;47.810;13.022;2023-03-13T02:39:42;5.50;99.90
14397;DHT22;50653;47.810;13.022;2023-03-13T02:42:11;5.50;99.90
14397;DHT22;50653;47.810;13.022;2023-03-13T02:44:39;5.50;99.90
14397;DHT22;50653;47.810;13.022;2023-03-13T02:47:06;5.40;99.90
14397;DHT22;50653;47.810;13.022;2023-03-13T02:49:35;5.40;99.90
14397;DHT22;50653;47.810;13.022;2023-03-13T02:52:12;5.50;99.90
14397;DHT22;50653;47.810;13.022;2023-03-13T02:54:43;5.40;99.90
14397;DHT22;50653;47.810;13.022;2023-03-13T02:57:10;5.50;99.90
14397;DHT22;50653;47.810;13.022;2023-03-13T02:59:35;5.40;99.90
14397;DHT22;50653;47.810;13.022;2023-03-13T03:02:02;5.40;99.90
14397;DHT22;50653;47.810;13.022;2023-03-13T03:04:28;5.50;99.90
14397;DHT22;50653;47.810;13.022;2023-03-13T03:06:55;5.50;99.90
14397;DHT22;50653;47.810;13.022;2023-03-13T03:09:21;5.40;99.90
14397;DHT22;50653;47.810;13.022;2023-03-13T03:11:49;5.40;99.90
14397;DHT22;50653;47.810;13.022;2023-03-13T03:14:15;5.40;99.90
14397;DHT22;50653;47.810;13.022;2023-03-13T03:16:44;5.50;99.90
14397;DHT22;50653;47.810;13.022;2023-03-13T03:19:10;5.40;99.90
14397;DHT22;50653;47.810;13.022;2023-03-13T03:21:36;5.50;99.90
14397;DHT22;50653;47.810;13.022;2023-03-13T03:24:02;5.40;99.90
14397;DHT22;50653;47.810;13.022;2023-03-13T03:26:28;5.40;99.90
14397;DHT22;50653;47.810;13.022;2023-03-13T03:28:54;5.40;99.90
14397;DHT22;50653;47.810;13.022;2023-03-13T03:31:20;5.30;99.90
14397;DHT22;50653;47.810;13.022;2023-03-13T03:33:46;5.30;99.90
14397;DHT22;50653;47.810;13.022;2023-03-13T03:36:17;5.30;99.90
14397;DHT22;50653;47.810;13.022;2023-03-13T03:38:45;5.40;99.90
14397;DHT22;50653;47.810;13.022;2023-03-13T03:41:14;5.30;99.90
14397;DHT22;50653;47.810;13.022;2023-03-13T03:43:41;5.30;99.90
14397;DHT22;50653;47.810;13.022;2023-03-13T03:46:09;5.40;99.90
14397;DHT22;50653;47.810;13.022;2023-03-13T03:48:35;5.40;99.90
14397;DHT22;50653;47.810;13.022;2023-03-13T03:51:04;5.40;99.90
14397;DHT22;50653;47.810;13.022;2023-03-13T03:53:32;5.40;99.90
14397;DHT22;50653;47.810;13.022;2023-03-13T03:55:58;5.30;99.90
14397;DHT22;50653;47.810;13.022;2023-03-13T03:58:24;5.30;99.90
14397;DHT22;50653;47.810;13.022;2023-03-13T04:01:08;5.30;99.90
14397;DHT22;50653;47.810;13.022;2023-03-13T04:03:34;5.20;99.90
14397;DHT22;50653;47.810;13.022;2023-03-13T04:05:59;5.30;99.90
14397;DHT22;50653;47.810;13.022;2023-03-13T04:08:25;5.40;99.90
14397;DHT22;50653;47.810;13.022;2023-03-13T04:10:51;5.30;99.90
14397;DHT22;50653;47.810;13.022;2023-03-13T04:13:20;5.30;99.90
14397;DHT22;50653;47.810;13.022;2023-03-13T04:15:46;5.40;99.90
14397;DHT22;50653;47.810;13.022;2023-03-13T04:18:14;5.30;99.90
14397;DHT22;50653;47.810;13.022;2023-03-13T04:20:41;5.30;99.90
14397;DHT22;50653;47.810;13.022;2023-03-13T04:23:07;5.40;99.90
14397;DHT22;50653;47.810;13.022;2023-03-13T04:25:33;5.40;99.90
14397;DHT22;50653;47.810;13.022;2023-03-13T04:28:00;5.40;99.90
14397;DHT22;50653;47.810;13.022;2023-03-13T04:30:33;5.40;99.90
14397;DHT22;50653;47.810;13.022;2023-03-13T04:33:09;5.30;99.90
14397;DHT22;50653;47.810;13.022;2023-03-13T04:35:57;5.30;99.90
14397;DHT22;50653;47.810;13.022;2023-03-13T04:38:41;5.40;99.90
14397;DHT22;50653;47.810;13.022;2023-03-13T04:41:21;5.30;99.90
14397;DHT22;50653;47.810;13.022;2023-03-13T04:44:02;5.40;99.90
14397;DHT22;50653;47.810;13.022;2023-03-13T04:46:35;5.40;99.90
14397;DHT22;50653;47.810;13.022;2023-03-13T04:49:09;5.40;99.90
14397;DHT22;50653;47.810;13.022;2023-03-13T04:51:38;5.40;99.90
14397;DHT22;50653;47.810;13.022;2023-03-13T04:54:15;5.40;99.90
14397;DHT22;50653;47.810;13.022;2023-03-13T04:56:51;5.40;99.90
14397;DHT22;50653;47.810;13.022;2023-03-13T04:59:27;5.40;99.90
14397;DHT22;50653;47.810;13.022;2023-03-13T05:01:59;5.50;99.90
14397;DHT22;50653;47.810;13.022;2023-03-13T05:04:37;5.60;99.90
14397;DHT22;50653;47.810;13.022;2023-03-13T05:07:20;5.60;99.90
14397;DHT22;50653;47.810;13.022;2023-03-13T05:09:58;5.60;99.90
14397;DHT22;50653;47.810;13.022;2023-03-13T05:12:29;5.70;99.90
14397;DHT22;50653;47.810;13.022;2023-03-13T05:15:08;5.70;99.90
14397;DHT22;50653;47.810;13.022;2023-03-13T05:18:00;5.70;99.90
14397;DHT22;50653;47.810;13.022;2023-03-13T05:20:44;5.70;99.90
14397;DHT22;50653;47.810;13.022;2023-03-13T05:23:30;5.70;99.90
14397;DHT22;50653;47.810;13.022;2023-03-13T05:26:04;5.70;99.90
14397;DHT22;50653;47.810;13.022;2023-03-13T05:28:39;5.70;99.90
14397;DHT22;50653;47.810;13.022;2023-03-13T05:31:25;5.70;99.90
14397;DHT22;50653;47.810;13.022;2023-03-13T05:34:01;5.60;99.90
14397;DHT22;50653;47.810;13.022;2023-03-13T05:36:40;5.60;99.90
14397;DHT22;50653;47.810;13.022;2023-03-13T05:39:25;5.60;99.90
14397;DHT22;50653;47.810;13.022;2023-03-13T05:42:05;5.60;99.90
14397;DHT22;50653;47.810;13.022;2023-03-13T05:44:48;5.60;99.90
14397;DHT22;50653;47.810;13.022;2023-03-13T05:47:14;5.60;99.90
14397;DHT22;50653;47.810;13.022;2023-03-13T05:50:01;5.60;99.90
14397;DHT22;50653;47.810;13.022;2023-03-13T05:52:47;5.60;99.90
14397;DHT22;50653;47.810;13.022;2023-03-13T05:55:28;5.60;99.90
14397;DHT22;50653;47.810;13.022;2023-03-13T05:58:32;5.60;99.90
14397;DHT22;50653;47.810;13.022;2023-03-13T06:01:10;5.60;99.90
14397;DHT22;50653;47.810;13.022;2023-03-13T06:03:39;5.60;99.90
14397;DHT22;50653;47.810;13.022;2023-03-13T06:06:06;5.70;99.90
14397;DHT22;50653;47.810;13.022;2023-03-13T06:08:36;5.70;99.90
14397;DHT22;50653;47.810;13.022;2023-03-13T06:11:02;5.70;99.90
14397;DHT22;50653;47.810;13.022;2023-03-13T06:13:28;5.80;99.90
14397;DHT22;50653;47.810;13.022;2023-03-13T06:15:57;5.80;99.90
14397;DHT22;50653;47.810;13.022;2023-03-13T06:18:36;5.90;99.90
14397;DHT22;50653;47.810;13.022;2023-03-13T06:21:02;6.00;99.90
14397;DHT22;50653;47.810;13.022;2023-03-13T06:23:28;6.00;99.90
14397;DHT22;50653;47.810;13.022;2023-03-13T06:25:54;6.00;99.90
14397;DHT22;50653;47.810;13.022;2023-03-13T06:28:19;6.10;99.90
14397;DHT22;50653;47.810;13.022;2023-03-13T06:30:45;6.20;99.90
14397;DHT22;50653;47.810;13.022;2023-03-13T06:33:11;6.20;99.90
14397;DHT22;50653;47.810;13.022;2023-03-13T06:35:41;6.20;99.90
14397;DHT22;50653;47.810;13.022;2023-03-13T06:38:08;6.20;99.90
14397;DHT22;50653;47.810;13.022;2023-03-13T06:40:34;6.20;99.90
14397;DHT22;50653;47.810;13.022;2023-03-13T06:42:59;6.20;99.90
14397;DHT22;50653;47.810;13.022;2023-03-13T06:45:25;6.30;99.90
14397;DHT22;50653;47.810;13.022;2023-03-13T06:47:51;6.30;99.90
14397;DHT22;50653;47.810;13.022;2023-03-13T06:50:17;6.30;99.90
14397;DHT22;50653;47.810;13.022;2023-03-13T06:52:46;6.30;99.90
14397;DHT22;50653;47.810;13.022;2023-03-13T06:55:12;6.40;99.90
14397;DHT22;50653;47.810;13.022;2023-03-13T06:57:38;6.40;99.90
14397;DHT22;50653;47.810;13.022;2023-03-13T07:00:04;6.40;99.90
14397;DHT22;50653;47.810;13.022;2023-03-13T07:02:31;6.50;99.90
14397;DHT22;50653;47.810;13.022;2023-03-13T07:04:57;6.50;99.90
14397;DHT22;50653;47.810;13.022;2023-03-13T07:07:22;6.50;99.90
14397;DHT22;50653;47.810;13.022;2023-03-13T07:09:48;6.60;99.90
14397;DHT22;50653;47.810;13.022;2023-03-13T07:12:13;6.60;99.90
14397;DHT22;50653;47.810;13.022;2023-03-13T07:14:39;6.60;99.90
14397;DHT22;50653;47.810;13.022;2023-03-13T07:17:05;6.60;99.90
14397;DHT22;50653;47.810;13.022;2023-03-13T07:19:31;6.60;99.90
14397;DHT22;50653;47.810;13.022;2023-03-13T07:21:56;6.70;99.90
14397;DHT22;50653;47.810;13.022;2023-03-13T07:24:22;6.70;99.90
14397;DHT22;50653;47.810;13.022;2023-03-13T07:26:48;6.70;99.90
14397;DHT22;50653;47.810;13.022;2023-03-13T07:29:13;6.70;99.90
14397;DHT22;50653;47.810;13.022;2023-03-13T07:31:39;6.80;99.90
14397;DHT22;50653;47.810;13.022;2023-03-13T07:34:04;6.80;99.90
14397;DHT22;50653;47.810;13.022;2023-03-13T07:36:30;6.80;99.90
14397;DHT22;50653;47.810;13.022;2023-03-13T07:38:56;6.90;99.90
14397;DHT22;50653;47.810;13.022;2023-03-13T07:41:22;6.90;99.90
14397;DHT22;50653;47.810;13.022;2023-03-13T07:43:48;7.00;99.90
14397;DHT22;50653;47.810;13.022;2023-03-13T07:46:18;7.00;99.90
14397;DHT22;50653;47.810;13.022;2023-03-13T07:48:45;7.10;99.90
14397;DHT22;50653;47.810;13.022;2023-03-13T07:51:16;7.20;99.90
14397;DHT22;50653;47.810;13.022;2023-03-13T07:53:43;7.30;99.90
14397;DHT22;50653;47.810;13.022;2023-03-13T07:56:11;7.30;99.80
14397;DHT22;50653;47.810;13.022;2023-03-13T07:58:38;7.40;99.50
14397;DHT22;50653;47.810;13.022;2023-03-13T08:01:21;7.50;99.20
14397;DHT22;50653;47.810;13.022;2023-03-13T08:03:47;7.50;99.10
14397;DHT22;50653;47.810;13.022;2023-03-13T08:06:18;7.60;98.90
14397;DHT22;50653;47.810;13.022;2023-03-13T08:08:44;7.70;98.60
14397;DHT22;50653;47.810;13.022;2023-03-13T08:11:16;7.80;98.40
14397;DHT22;50653;47.810;13.022;2023-03-13T08:13:42;7.80;97.90
14397;DHT22;50653;47.810;13.022;2023-03-13T08:18:39;8.00;97.60
14397;DHT22;50653;47.810;13.022;2023-03-13T08:21:28;8.10;97.30
14397;DHT22;50653;47.810;13.022;2023-03-13T08:23:56;8.20;96.80
14397;DHT22;50653;47.810;13.022;2023-03-13T08:26:24;8.20;96.50
14397;DHT22;50653;47.810;13.022;2023-03-13T08:28:54;8.30;96.50
14397;DHT22;50653;47.810;13.022;2023-03-13T08:31:29;8.30;96.20
14397;DHT22;50653;47.810;13.022;2023-03-13T08:33:55;8.40;95.90
14397;DHT22;50653;47.810;13.022;2023-03-13T08:39:18;8.60;95.50
14397;DHT22;50653;47.810;13.022;2023-03-13T08:41:44;8.60;95.00
14397;DHT22;50653;47.810;13.022;2023-03-13T08:44:12;8.60;94.80
14397;DHT22;50653;47.810;13.022;2023-03-13T08:46:38;8.70;94.60
14397;DHT22;50653;47.810;13.022;2023-03-13T08:49:05;8.70;94.70
14397;DHT22;50653;47.810;13.022;2023-03-13T08:51:32;8.70;94.90
14397;DHT22;50653;47.810;13.022;2023-03-13T08:53:57;8.80;94.40
14397;DHT22;50653;47.810;13.022;2023-03-13T08:56:25;8.80;94.20
14397;DHT22;50653;47.810;13.022;2023-03-13T08:59:01;8.80;94.10
14397;DHT22;50653;47.810;13.022;2023-03-13T09:01:29;8.90;93.70
14397;DHT22;50653;47.810;13.022;2023-03-13T09:03:55;9.00;93.20
14397;DHT22;50653;47.810;13.022;2023-03-13T09:06:21;9.10;92.60
14397;DHT22;50653;47.810;13.022;2023-03-13T09:08:47;9.20;91.70
14397;DHT22;50653;47.810;13.022;2023-03-13T09:11:15;9.20;91.40
14397;DHT22;50653;47.810;13.022;2023-03-13T09:13:43;9.30;91.60
14397;DHT22;50653;47.810;13.022;2023-03-13T09:16:12;9.30;91.50
14397;DHT22;50653;47.810;13.022;2023-03-13T09:18:38;9.40;91.30
14397;DHT22;50653;47.810;13.022;2023-03-13T09:21:12;9.50;91.10
14397;DHT22;50653;47.810;13.022;2023-03-13T09:23:38;9.60;90.20
14397;DHT22;50653;47.810;13.022;2023-03-13T09:26:04;9.60;90.60
14397;DHT22;50653;47.810;13.022;2023-03-13T09:28:30;9.60;90.10
14397;DHT22;50653;47.810;13.022;2023-03-13T09:31:09;9.60;90.50
14397;DHT22;50653;47.810;13.022;2023-03-13T09:33:35;9.60;90.40
14397;DHT22;50653;47.810;13.022;2023-03-13T09:36:00;9.70;90.70
14397;DHT22;50653;47.810;13.022;2023-03-13T09:38:26;9.70;90.20
14397;DHT22;50653;47.810;13.022;2023-03-13T09:40:53;9.80;90.20
14397;DHT22;50653;47.810;13.022;2023-03-13T09:43:30;9.80;90.00
14397;DHT22;50653;47.810;13.022;2023-03-13T09:46:03;9.80;90.00
14397;DHT22;50653;47.810;13.022;2023-03-13T09:48:33;9.90;89.80
14397;DHT22;50653;47.810;13.022;2023-03-13T09:51:27;9.90;89.40
14397;DHT22;50653;47.810;13.022;2023-03-13T09:54:02;10.00;87.70
14397;DHT22;50653;47.810;13.022;2023-03-13T09:56:45;10.00;87.80
14397;DHT22;50653;47.810;13.022;2023-03-13T09:59:18;10.10;87.00
14397;DHT22;50653;47.810;13.022;2023-03-13T10:01:45;10.10;87.80
14397;DHT22;50653;47.810;13.022;2023-03-13T10:06:43;10.30;86.90
14397;DHT22;50653;47.810;13.022;2023-03-13T10:09:20;10.30;86.50
14397;DHT22;50653;47.810;13.022;2023-03-13T10:20:00;10.60;86.70
14397;DHT22;50653;47.810;13.022;2023-03-13T10:22:27;10.60;85.90
14397;DHT22;50653;47.810;13.022;2023-03-13T10:25:05;10.70;85.70
14397;DHT22;50653;47.810;13.022;2023-03-13T10:27:44;10.70;83.30
14397;DHT22;50653;47.810;13.022;2023-03-13T10:30:23;10.70;82.20
14397;DHT22;50653;47.810;13.022;2023-03-13T10:32:49;10.80;82.20
14397;DHT22;50653;47.810;13.022;2023-03-13T10:35:31;10.80;81.70
14397;DHT22;50653;47.810;13.022;2023-03-13T10:38:03;10.90;81.00
14397;DHT22;50653;47.810;13.022;2023-03-13T10:40:29;10.90;80.60
14397;DHT22;50653;47.810;13.022;2023-03-13T10:43:05;10.90;80.10
14397;DHT22;50653;47.810;13.022;2023-03-13T10:45:35;11.00;79.40
14397;DHT22;50653;47.810;13.022;2023-03-13T10:48:25;11.10;79.90
14397;DHT22;50653;47.810;13.022;2023-03-13T10:50:55;11.10;79.20
14397;DHT22;50653;47.810;13.022;2023-03-13T10:55:59;11.20;79.20
14397;DHT22;50653;47.810;13.022;2023-03-13T10:58:43;11.20;79.40
14397;DHT22;50653;47.810;13.022;2023-03-13T11:01:17;11.20;79.90
14397;DHT22;50653;47.810;13.022;2023-03-13T11:03:44;11.30;78.30
14397;DHT22;50653;47.810;13.022;2023-03-13T11:06:31;11.40;78.30
14397;DHT22;50653;47.810;13.022;2023-03-13T11:09:10;11.30;80.00
14397;DHT22;50653;47.810;13.022;2023-03-13T11:11:53;11.30;79.80
14397;DHT22;50653;47.810;13.022;2023-03-13T11:14:21;11.30;80.50
14397;DHT22;50653;47.810;13.022;2023-03-13T11:16:54;11.40;79.30
14397;DHT22;50653;47.810;13.022;2023-03-13T11:22:23;11.70;78.20
14397;DHT22;50653;47.810;13.022;2023-03-13T11:28:27;11.80;78.90
14397;DHT22;50653;47.810;13.022;2023-03-13T11:34:01;12.10;77.50
14397;DHT22;50653;47.810;13.022;2023-03-13T11:50:54;12.80;73.00
14397;DHT22;50653;47.810;13.022;2023-03-13T12:01:50;13.00;71.40
14397;DHT22;50653;47.810;13.022;2023-03-13T12:04:24;13.20;71.00
14397;DHT22;50653;47.810;13.022;2023-03-13T12:09:40;13.30;69.80
14397;DHT22;50653;47.810;13.022;2023-03-13T12:15:24;13.50;67.90
14397;DHT22;50653;47.810;13.022;2023-03-13T12:18:30;13.70;65.50
14397;DHT22;50653;47.810;13.022;2023-03-13T12:24:02;13.80;64.40
14397;DHT22;50653;47.810;13.022;2023-03-13T12:27:07;13.80;64.00
14397;DHT22;50653;47.810;13.022;2023-03-13T12:32:39;13.80;64.20
14397;DHT22;50653;47.810;13.022;2023-03-13T12:35:18;13.90;64.40
14397;DHT22;50653;47.810;13.022;2023-03-13T12:37:53;14.00;64.20
14397;DHT22;50653;47.810;13.022;2023-03-13T12:43:39;14.30;63.50
14397;DHT22;50653;47.810;13.022;2023-03-13T12:59:37;14.80;61.90
14397;DHT22;50653;47.810;13.022;2023-03-13T13:02:25;14.90;61.20
14397;DHT22;50653;47.810;13.022;2023-03-13T13:04:53;15.00;61.00
14397;DHT22;50653;47.810;13.022;2023-03-13T13:07:30;14.90;61.20
14397;DHT22;50653;47.810;13.022;2023-03-13T13:12:42;15.00;62.20
14397;DHT22;50653;47.810;13.022;2023-03-13T13:15:24;15.10;62.30
14397;DHT22;50653;47.810;13.022;2023-03-13T13:17:59;15.10;63.40
14397;DHT22;50653;47.810;13.022;2023-03-13T13:20:38;15.30;63.10
14397;DHT22;50653;47.810;13.022;2023-03-13T13:23:27;15.30;63.80
14397;DHT22;50653;47.810;13.022;2023-03-13T13:28:51;15.20;63.50
14397;DHT22;50653;47.810;13.022;2023-03-13T13:31:44;15.20;64.20
14397;DHT22;50653;47.810;13.022;2023-03-13T13:37:03;15.50;63.00
14397;DHT22;50653;47.810;13.022;2023-03-13T13:39:52;15.40;64.20
14397;DHT22;50653;47.810;13.022;2023-03-13T13:47:31;14.90;67.20
14397;DHT22;50653;47.810;13.022;2023-03-13T13:49:58;14.90;67.50
14397;DHT22;50653;47.810;13.022;2023-03-13T13:52:36;14.80;68.60
14397;DHT22;50653;47.810;13.022;2023-03-13T13:57:57;15.20;64.70
14397;DHT22;50653;47.810;13.022;2023-03-13T14:00:28;15.10;67.10
14397;DHT22;50653;47.810;13.022;2023-03-13T14:02:59;14.90;64.50
14397;DHT22;50653;47.810;13.022;2023-03-13T14:05:30;15.00;67.50
14397;DHT22;50653;47.810;13.022;2023-03-13T14:08:07;14.70;70.50
14397;DHT22;50653;47.810;13.022;2023-03-13T14:10:50;14.60;69.90
14397;DHT22;50653;47.810;13.022;2023-03-13T14:13:18;14.80;66.70
14397;DHT22;50653;47.810;13.022;2023-03-13T14:15:48;14.70;70.90
14397;DHT22;50653;47.810;13.022;2023-03-13T14:18:24;14.60;70.30
14397;DHT22;50653;47.810;13.022;2023-03-13T14:21:01;14.60;66.10
14397;DHT22;50653;47.810;13.022;2023-03-13T14:26:26;14.70;64.80
14397;DHT22;50653;47.810;13.022;2023-03-13T14:28:55;14.80;67.20
14397;DHT22;50653;47.810;13.022;2023-03-13T14:33:53;15.10;65.60
14397;DHT22;50653;47.810;13.022;2023-03-13T14:36:19;15.30;63.70
14397;DHT22;50653;47.810;13.022;2023-03-13T14:38:58;15.70;62.70
14397;DHT22;50653;47.810;13.022;2023-03-13T14:41:31;15.90;62.80
14397;DHT22;50653;47.810;13.022;2023-03-13T14:44:11;16.10;61.40
14397;DHT22;50653;47.810;13.022;2023-03-13T14:46:40;16.20;61.00
14397;DHT22;50653;47.810;13.022;2023-03-13T14:49:18;16.30;60.50
14397;DHT22;50653;47.810;13.022;2023-03-13T14:51:45;16.10;62.20
14397;DHT22;50653;47.810;13.022;2023-03-13T14:54:30;16.10;62.40
14397;DHT22;50653;47.810;13.022;2023-03-13T14:59:34;15.90;62.20
14397;DHT22;50653;47.810;13.022;2023-03-13T15:02:23;15.90;64.10
14397;DHT22;50653;47.810;13.022;2023-03-13T15:07:48;15.50;66.90
14397;DHT22;50653;47.810;13.022;2023-03-13T15:10:21;15.40;68.60
14397;DHT22;50653;47.810;13.022;2023-03-13T15:12:47;15.60;63.90
14397;DHT22;50653;47.810;13.022;2023-03-13T15:15:13;15.50;65.00
14397;DHT22;50653;47.810;13.022;2023-03-13T15:17:38;15.90;63.40
14397;DHT22;50653;47.810;13.022;2023-03-13T15:20:05;15.50;68.10
14397;DHT22;50653;47.810;13.022;2023-03-13T15:22:36;15.60;63.10
14397;DHT22;50653;47.810;13.022;2023-03-13T15:25:03;15.80;62.60
14397;DHT22;50653;47.810;13.022;2023-03-13T15:27:29;15.80;61.10
14397;DHT22;50653;47.810;13.022;2023-03-13T15:29:55;16.10;61.50
14397;DHT22;50653;47.810;13.022;2023-03-13T15:32:28;16.20;60.90
14397;DHT22;50653;47.810;13.022;2023-03-13T15:34:55;15.80;65.80
14397;DHT22;50653;47.810;13.022;2023-03-13T15:37:24;15.40;67.90
14397;DHT22;50653;47.810;13.022;2023-03-13T15:39:50;15.40;63.90
14397;DHT22;50653;47.810;13.022;2023-03-13T15:42:15;15.20;66.40
14397;DHT22;50653;47.810;13.022;2023-03-13T15:44:41;15.30;65.20
14397;DHT22;50653;47.810;13.022;2023-03-13T15:47:10;15.30;65.10
14397;DHT22;50653;47.810;13.022;2023-03-13T15:49:37;15.20;64.50
14397;DHT22;50653;47.810;13.022;2023-03-13T15:52:04;15.20;64.10
14397;DHT22;50653;47.810;13.022;2023-03-13T15:54:30;15.10;64.20
14397;DHT22;50653;47.810;13.022;2023-03-13T15:56:55;15.10;65.40
14397;DHT22;50653;47.810;13.022;2023-03-13T15:59:21;15.00;67.60
14397;DHT22;50653;47.810;13.022;2023-03-13T16:01:46;15.00;67.20
14397;DHT22;50653;47.810;13.022;2023-03-13T16:04:12;14.90;69.20
14397;DHT22;50653;47.810;13.022;2023-03-13T16:06:38;14.80;68.80
14397;DHT22;50653;47.810;13.022;2023-03-13T16:09:05;15.00;66.30
14397;DHT22;50653;47.810;13.022;2023-03-13T16:11:31;14.90;67.80
14397;DHT22;50653;47.810;13.022;2023-03-13T16:13:57;15.00;67.20
14397;DHT22;50653;47.810;13.022;2023-03-13T16:16:28;15.00;66.50
14397;DHT22;50653;47.810;13.022;2023-03-13T16:18:55;14.90;68.40
14397;DHT22;50653;47.810;13.022;2023-03-13T16:21:24;15.00;68.10
14397;DHT22;50653;47.810;13.022;2023-03-13T16:23:50;14.90;68.80
14397;DHT22;50653;47.810;13.022;2023-03-13T16:26:22;14.80;69.70
14397;DHT22;50653;47.810;13.022;2023-03-13T16:28:49;14.80;70.90
14397;DHT22;50653;47.810;13.022;2023-03-13T16:31:23;14.60;69.60
14397;DHT22;50653;47.810;13.022;2023-03-13T16:33:50;14.60;69.10
14397;DHT22;50653;47.810;13.022;2023-03-13T16:36:18;14.60;69.00
14397;DHT22;50653;47.810;13.022;2023-03-13T16:38:45;14.50;70.30
14397;DHT22;50653;47.810;13.022;2023-03-13T16:41:18;14.50;70.00
14397;DHT22;50653;47.810;13.022;2023-03-13T16:43:44;14.50;70.60
14397;DHT22;50653;47.810;13.022;2023-03-13T16:46:19;14.50;70.90
14397;DHT22;50653;47.810;13.022;2023-03-13T16:48:45;14.50;70.40
14397;DHT22;50653;47.810;13.022;2023-03-13T16:51:19;14.50;71.00
14397;DHT22;50653;47.810;13.022;2023-03-13T16:53:46;14.30;72.50
14397;DHT22;50653;47.810;13.022;2023-03-13T16:56:38;14.30;71.90
14397;DHT22;50653;47.810;13.022;2023-03-13T16:59:05;14.30;71.40
14397;DHT22;50653;47.810;13.022;2023-03-13T17:01:31;14.20;71.50
14397;DHT22;50653;47.810;13.022;2023-03-13T17:03:57;14.20;71.30
14397;DHT22;50653;47.810;13.022;2023-03-13T17:06:35;14.20;71.50
14397;DHT22;50653;47.810;13.022;2023-03-13T17:09:01;14.20;71.90
14397;DHT22;50653;47.810;13.022;2023-03-13T17:11:27;14.20;72.40
14397;DHT22;50653;47.810;13.022;2023-03-13T17:13:53;14.10;73.20
14397;DHT22;50653;47.810;13.022;2023-03-13T17:16:23;14.00;72.90
14397;DHT22;50653;47.810;13.022;2023-03-13T17:18:51;14.00;73.40
14397;DHT22;50653;47.810;13.022;2023-03-13T17:21:20;13.90;74.30
14397;DHT22;50653;47.810;13.022;2023-03-13T17:23:46;14.00;75.30
14397;DHT22;50653;47.810;13.022;2023-03-13T17:26:26;14.10;75.90
14397;DHT22;50653;47.810;13.022;2023-03-13T17:28:54;13.90;76.20
14397;DHT22;50653;47.810;13.022;2023-03-13T17:31:21;13.90;76.80
14397;DHT22;50653;47.810;13.022;2023-03-13T17:33:47;13.80;76.90
14397;DHT22;50653;47.810;13.022;2023-03-13T17:38:44;13.70;77.50
14397;DHT22;50653;47.810;13.022;2023-03-13T17:41:12;13.60;77.50
14397;DHT22;50653;47.810;13.022;2023-03-13T17:43:39;13.60;77.20
14397;DHT22;50653;47.810;13.022;2023-03-13T17:46:13;13.60;77.30
14397;DHT22;50653;47.810;13.022;2023-03-13T17:48:39;13.60;77.10